Portada
METAR-TAF:

METAR-TAF

Aeroports :

Kunming, Xina

latitud: 25-01N, longitud: 102-41E, altitud: 1892 m

Observació

L'informe es va fer fa 1 hora i 3 minuts, a les 03:00 UTC
Vent 12 kt del Sud-Oest
Temperatura 14°C
Humitat 72%
Pressió 1026 hPa
Visibilitat 10 km o més
Núvols disperses a una alçada de 2300 ft

METAR: ZPPP 210300Z 22006MPS 9999 SCT023 14/09 Q1026 NOSIG

Hora: 12:03 (04:03 UTC)

Pronòstic

L'informe es va fer fa 8 hores i 51 minuts, a les 19:12 UTC
Pronòstic vàlid del 21 a les 00 UTC al 21 a les 24 UTC
Vent 8 kt del Nord-Est
Visibilitat 10 km o més
Núvols disperses a una alçada de 2600 ft
Evolucionant progressivament
l' 21 a les 02 UTC al 21 a les 03 UTC
Vent 10 kt del Sud-Oest

TAF: ZPPP 201912Z 2100/2124 04004MPS 9999 SCT026 TX19/2108Z TN07/2123Z BECMG 2102/2103 22005MPS

Observacions i pronòstics meteorològics de més de 4000 aeroports (METAR i TAF).

Les estacions disponibles són els punts grocs i vermells al mapa.

Posi el ratolí al punt desitjat per veure el nom de l'estació.

Feu clic per veure les observacions i els pronòstics meteorològics.

Per canviar el mapa: feu clic els botons verds amb una creu de color negre per apropar; al botó verd amb un guió per allunyar la imatge; o en les fletxes verdes per a mapes adjacents.


METAR-TAF: